EGNM

Leeds Bradford Airport

Leeds, United Kingdom
METAR EGNM 181520Z VRB02KT CAVOK 11/03 Q1027
Observed Flight Rules
Oct-18 @ 15:20 UTC (39 minutes ago) Visual Flight Rules
Wind Visibility Clouds
Variable at 2 knots 10,000+ meters
  • Clear skies
Temperatures Readings
Current 11°C / 52°F
Dewpoint 3°C / 37°F
Humidity 58%
Altimeter 30.32" Hg
Pressure 1027 hPa
Elevation 208
METAR EGNM 181520Z VRB02KT CAVOK 11/03 Q1027
Observed Flight Rules
Oct-18 @ 15:20 UTC
(39 minutes ago)
VFR
Wind Visibility
Variable at 2 knots 10,000+ meters
Clouds
  • Clear skies
Temperature Dewpoint
11°C / 52°F 3°C / 37°F
Humidity Altimeter Pressure
58% 30.32" Hg 1027 hPa